createdAt,value
2022-10-06T00:01:19.361Z,11.89
2022-10-06T00:03:49.450Z,11.89
2022-10-06T00:06:19.067Z,11.88
2022-10-06T00:08:48.083Z,11.88
2022-10-06T00:11:17.461Z,11.88
2022-10-06T00:13:46.748Z,11.87
2022-10-06T00:16:17.879Z,11.87
2022-10-06T00:18:47.305Z,11.86
2022-10-06T00:21:16.492Z,11.86
2022-10-06T00:23:45.282Z,11.86
2022-10-06T00:26:16.107Z,11.85
2022-10-06T00:28:46.053Z,11.85
2022-10-06T00:31:15.926Z,11.84
2022-10-06T00:33:44.691Z,11.83
2022-10-06T00:36:14.809Z,11.83
2022-10-06T00:38:43.978Z,11.82
2022-10-06T00:41:16.208Z,11.83
2022-10-06T00:43:49.133Z,11.82
2022-10-06T00:46:25.735Z,11.82
2022-10-06T00:49:01.791Z,11.82
2022-10-06T00:51:32.888Z,11.83
2022-10-06T00:54:02.595Z,11.83
2022-10-06T00:56:32.388Z,11.84
2022-10-06T00:59:01.114Z,11.85
2022-10-06T01:01:32.565Z,11.84
2022-10-06T01:04:06.013Z,11.85
2022-10-06T01:06:45.109Z,11.86
2022-10-06T01:09:16.085Z,11.87
2022-10-06T01:11:49.809Z,11.89
2022-10-06T01:14:19.803Z,11.91
2022-10-06T01:16:57.767Z,11.92
2022-10-06T01:19:37.070Z,11.94
2022-10-06T01:22:08.160Z,11.94
2022-10-06T01:24:37.730Z,11.96
2022-10-06T01:27:08.241Z,11.96
2022-10-06T01:29:38.211Z,11.97
2022-10-06T01:32:07.234Z,11.98
2022-10-06T01:34:36.489Z,11.99
2022-10-06T01:37:05.192Z,12.00
2022-10-06T01:39:35.590Z,11.99
2022-10-06T01:42:04.955Z,12.00
2022-10-06T01:44:33.951Z,12.00
2022-10-06T01:47:05.695Z,11.99
2022-10-06T01:49:35.016Z,12.00
2022-10-06T01:52:04.660Z,11.99
2022-10-06T01:54:33.601Z,11.99
2022-10-06T01:57:02.320Z,11.99
2022-10-06T01:59:31.114Z,12.00
2022-10-06T02:01:59.852Z,12.01
2022-10-06T02:04:28.630Z,12.00
2022-10-06T02:06:57.417Z,12.01
2022-10-06T02:09:26.365Z,12.01
2022-10-06T02:11:56.328Z,12.00
2022-10-06T02:14:25.015Z,11.99
2022-10-06T02:16:53.702Z,11.98
2022-10-06T02:19:22.599Z,11.98
2022-10-06T02:21:51.604Z,11.96
2022-10-06T02:24:20.339Z,11.95
2022-10-06T02:26:49.371Z,11.94
2022-10-06T02:29:18.467Z,11.92
2022-10-06T02:31:47.264Z,11.91
2022-10-06T02:34:16.513Z,11.90
2022-10-06T02:36:45.342Z,11.89
2022-10-06T02:39:14.283Z,11.88
2022-10-06T02:41:43.021Z,11.87
2022-10-06T02:44:11.981Z,11.87
2022-10-06T02:46:41.421Z,11.86
2022-10-06T02:49:10.118Z,11.85
2022-10-06T02:51:38.909Z,11.84
2022-10-06T02:54:08.239Z,11.84
2022-10-06T02:56:38.024Z,11.83
2022-10-06T02:59:06.977Z,11.82
2022-10-06T03:01:36.692Z,11.82
2022-10-06T03:04:11.511Z,11.81
2022-10-06T03:06:41.838Z,11.80
2022-10-06T03:09:21.508Z,11.80
2022-10-06T03:11:50.371Z,11.80
2022-10-06T03:14:24.221Z,11.79
2022-10-06T03:16:54.204Z,11.79
2022-10-06T03:19:26.194Z,11.78
2022-10-06T03:21:55.230Z,11.77
2022-10-06T03:24:27.718Z,11.76
2022-10-06T03:26:58.435Z,11.76
2022-10-06T03:29:30.397Z,11.75
2022-10-06T03:31:59.228Z,11.74
2022-10-06T03:34:28.077Z,11.74
2022-10-06T03:36:57.429Z,11.73
2022-10-06T03:39:27.114Z,11.75
2022-10-06T03:41:56.297Z,11.74
2022-10-06T03:44:25.304Z,11.74
2022-10-06T03:46:54.225Z,11.75
2022-10-06T03:49:23.171Z,11.75
2022-10-06T03:51:53.556Z,11.76
2022-10-06T03:54:25.313Z,11.75
2022-10-06T03:56:54.602Z,11.76
2022-10-06T03:59:23.462Z,11.76
2022-10-06T04:01:55.381Z,11.77
2022-10-06T04:04:29.988Z,11.78
2022-10-06T04:07:05.173Z,11.78
2022-10-06T04:09:33.919Z,11.79
2022-10-06T04:12:03.519Z,11.79
2022-10-06T04:14:34.703Z,11.79
2022-10-06T04:17:03.697Z,11.79
2022-10-06T04:19:35.759Z,11.79
2022-10-06T04:22:05.119Z,11.78
2022-10-06T04:24:36.215Z,11.78
2022-10-06T04:27:23.454Z,11.78
2022-10-06T04:29:57.840Z,11.78
2022-10-06T04:32:28.863Z,11.78
2022-10-06T04:34:57.717Z,11.77
2022-10-06T04:37:28.424Z,11.77
2022-10-06T04:39:57.211Z,11.76
2022-10-06T04:42:32.562Z,11.76
2022-10-06T04:45:05.164Z,11.76
2022-10-06T04:47:34.250Z,11.77
2022-10-06T04:50:03.553Z,11.77
2022-10-06T04:52:32.426Z,11.78
2022-10-06T04:55:02.844Z,11.79
2022-10-06T04:57:31.703Z,11.80
2022-10-06T05:00:19.085Z,11.81
2022-10-06T05:02:48.592Z,11.84
2022-10-06T05:05:17.474Z,11.89
2022-10-06T05:07:47.223Z,11.95
2022-10-06T05:10:16.835Z,12.04
2022-10-06T05:12:45.849Z,12.14
2022-10-06T05:15:15.383Z,12.24
2022-10-06T05:17:44.143Z,12.36
2022-10-06T05:20:12.914Z,12.47
2022-10-06T05:22:41.637Z,12.58
2022-10-06T05:25:11.146Z,12.70
2022-10-06T05:27:40.072Z,12.82
2022-10-06T05:30:11.721Z,12.94
2022-10-06T05:32:40.404Z,13.08
2022-10-06T05:35:09.747Z,13.22
2022-10-06T05:37:38.936Z,13.43
2022-10-06T05:40:09.116Z,13.59
2022-10-06T05:42:38.441Z,13.74
2022-10-06T05:45:09.582Z,13.88
2022-10-06T05:47:38.408Z,14.03
2022-10-06T05:50:08.980Z,14.20
2022-10-06T05:52:38.218Z,14.37
2022-10-06T05:55:09.637Z,14.53
2022-10-06T05:57:38.928Z,14.72
2022-10-06T06:00:10.285Z,14.88
2022-10-06T06:02:41.747Z,15.08
2022-10-06T06:05:11.650Z,15.29
2022-10-06T06:07:41.199Z,15.56
2022-10-06T06:10:10.517Z,15.80
2022-10-06T06:12:39.394Z,16.09
2022-10-06T06:15:44.976Z,16.50
2022-10-06T06:18:14.102Z,17.14
2022-10-06T06:20:42.983Z,17.65
2022-10-06T06:23:11.988Z,18.07
2022-10-06T06:25:42.190Z,18.51
2022-10-06T06:28:11.181Z,18.99
2022-10-06T06:30:40.083Z,19.29
2022-10-06T06:33:10.952Z,19.61
2022-10-06T06:35:40.320Z,19.99
2022-10-06T06:38:11.174Z,20.35
2022-10-06T06:40:41.595Z,20.64
2022-10-06T06:43:12.931Z,20.51
2022-10-06T06:46:04.164Z,19.94
2022-10-06T06:49:04.542Z,19.20
2022-10-06T06:51:39.727Z,18.72
2022-10-06T06:54:09.887Z,18.30
2022-10-06T06:56:45.156Z,17.92
2022-10-06T06:59:14.833Z,17.56
2022-10-06T07:01:46.661Z,17.24
2022-10-06T07:04:18.572Z,17.01
2022-10-06T07:06:58.082Z,16.79
2022-10-06T07:09:30.273Z,16.53
2022-10-06T07:12:15.326Z,16.33
2022-10-06T07:15:06.802Z,16.18
2022-10-06T07:17:58.771Z,15.98
2022-10-06T07:20:44.937Z,15.80
2022-10-06T07:23:35.456Z,15.62
2022-10-06T07:26:06.608Z,15.46
2022-10-06T07:28:35.508Z,15.35
2022-10-06T07:31:06.404Z,15.30
2022-10-06T07:33:36.620Z,15.28
2022-10-06T07:36:07.278Z,15.20
2022-10-06T07:38:37.055Z,15.15
2022-10-06T07:41:21.563Z,15.08
2022-10-06T07:43:54.354Z,15.02
2022-10-06T07:46:24.290Z,14.96
2022-10-06T07:49:00.037Z,14.91
2022-10-06T07:51:28.939Z,14.83
2022-10-06T07:53:59.429Z,14.76
2022-10-06T07:56:40.990Z,14.73
2022-10-06T07:59:09.719Z,14.72
2022-10-06T08:01:40.148Z,14.74
2022-10-06T08:04:08.941Z,14.76
2022-10-06T08:06:37.970Z,14.80
2022-10-06T08:09:07.098Z,14.83
2022-10-06T08:11:35.992Z,14.87
2022-10-06T08:14:04.710Z,14.95
2022-10-06T08:16:33.456Z,15.08
2022-10-06T08:19:02.174Z,15.34
2022-10-06T08:21:33.784Z,15.64
2022-10-06T08:24:02.831Z,16.05
2022-10-06T08:26:32.623Z,16.48
2022-10-06T08:29:02.523Z,17.12
2022-10-06T08:31:32.137Z,17.61
2022-10-06T08:34:01.273Z,18.13
2022-10-06T08:36:32.610Z,19.00
2022-10-06T08:39:01.811Z,19.85
2022-10-06T08:41:39.394Z,20.52
2022-10-06T08:44:20.670Z,21.21
2022-10-06T08:46:57.028Z,22.00
2022-10-06T08:49:32.825Z,22.68
2022-10-06T08:52:26.220Z,23.10
2022-10-06T08:55:06.924Z,23.50
2022-10-06T08:57:42.689Z,24.01
2022-10-06T09:00:19.496Z,24.49
2022-10-06T09:02:52.867Z,24.90
2022-10-06T09:05:27.531Z,24.84
2022-10-06T09:08:12.807Z,24.52
2022-10-06T09:10:50.385Z,24.08
2022-10-06T09:13:25.272Z,23.72
2022-10-06T09:15:57.971Z,23.34
2022-10-06T09:18:56.010Z,23.00
2022-10-06T09:21:30.470Z,22.54
2022-10-06T09:24:05.397Z,22.09
2022-10-06T09:26:34.805Z,21.79
2022-10-06T09:29:03.800Z,21.68
2022-10-06T09:31:38.014Z,21.64
2022-10-06T09:34:18.397Z,21.74
2022-10-06T09:37:02.605Z,22.03
2022-10-06T09:39:35.943Z,22.59
2022-10-06T09:42:11.849Z,23.15
2022-10-06T09:44:51.737Z,23.62
2022-10-06T09:47:31.631Z,24.05
2022-10-06T09:50:19.845Z,24.40
2022-10-06T09:53:09.695Z,24.66
2022-10-06T09:55:46.172Z,24.51
2022-10-06T09:58:22.107Z,24.18
2022-10-06T10:00:54.850Z,23.82
2022-10-06T10:03:25.814Z,23.46
2022-10-06T10:05:55.114Z,23.39
2022-10-06T10:08:26.777Z,23.55
2022-10-06T10:11:37.084Z,23.88
2022-10-06T10:14:16.338Z,24.40
2022-10-06T10:16:48.632Z,24.79
2022-10-06T10:19:27.478Z,25.13
2022-10-06T10:21:56.324Z,25.06
2022-10-06T10:24:47.069Z,24.90
2022-10-06T10:27:22.473Z,24.63
2022-10-06T10:30:02.549Z,24.33
2022-10-06T10:32:45.215Z,23.97
2022-10-06T10:35:20.861Z,23.52
2022-10-06T10:37:53.138Z,23.18
2022-10-06T10:40:37.058Z,22.86
2022-10-06T10:43:23.741Z,22.52
2022-10-06T10:45:57.188Z,22.11
2022-10-06T10:48:31.334Z,21.71
2022-10-06T10:51:06.959Z,21.40
2022-10-06T10:53:47.054Z,21.10
2022-10-06T10:56:18.824Z,20.81
2022-10-06T10:58:52.857Z,20.56
2022-10-06T11:01:30.422Z,20.36
2022-10-06T11:04:00.319Z,20.16
2022-10-06T11:06:55.988Z,20.02
2022-10-06T11:09:33.483Z,19.85
2022-10-06T11:12:18.287Z,19.72
2022-10-06T11:14:54.391Z,19.61
2022-10-06T11:17:44.010Z,19.54
2022-10-06T11:20:37.862Z,19.50
2022-10-06T11:23:25.221Z,19.43
2022-10-06T11:26:04.633Z,19.36
2022-10-06T11:28:41.868Z,19.30
2022-10-06T11:31:22.784Z,19.28
2022-10-06T11:33:54.951Z,19.30
2022-10-06T11:36:36.951Z,19.39
2022-10-06T11:39:14.427Z,19.48
2022-10-06T11:41:49.174Z,19.54
2022-10-06T11:44:28.861Z,19.55
2022-10-06T11:47:01.585Z,19.51
2022-10-06T11:50:00.186Z,19.40
2022-10-06T11:52:46.295Z,19.27
2022-10-06T11:55:19.457Z,19.20
2022-10-06T11:58:37.370Z,19.16
2022-10-06T12:01:01.623Z,19.11
2022-10-06T12:04:03.572Z,19.09
2022-10-06T12:07:01.694Z,19.09
2022-10-06T12:09:45.536Z,19.17
2022-10-06T12:13:06.149Z,19.25
2022-10-06T12:19:16.178Z,19.57
2022-10-06T12:21:53.805Z,19.65
2022-10-06T12:24:30.157Z,19.66
2022-10-06T12:27:25.915Z,19.67
2022-10-06T12:30:02.532Z,19.65
2022-10-06T12:32:45.872Z,19.73
2022-10-06T12:35:29.757Z,19.75
2022-10-06T12:38:03.968Z,19.67
2022-10-06T12:40:54.844Z,19.54
2022-10-06T12:43:32.576Z,19.39
2022-10-06T12:46:04.386Z,19.23
2022-10-06T12:48:41.703Z,19.09
2022-10-06T12:51:27.172Z,18.96
2022-10-06T12:54:03.312Z,18.86
2022-10-06T12:56:34.230Z,18.76
2022-10-06T12:59:20.116Z,18.65
2022-10-06T13:01:51.441Z,18.56
2022-10-06T13:04:34.566Z,18.49
2022-10-06T13:07:13.654Z,18.41
2022-10-06T13:09:42.602Z,18.32
2022-10-06T13:12:22.494Z,18.28
2022-10-06T13:15:13.448Z,18.21
2022-10-06T13:17:46.090Z,18.14
2022-10-06T13:20:32.526Z,18.11
2022-10-06T13:23:03.193Z,18.20
2022-10-06T13:25:44.157Z,18.36
2022-10-06T13:28:48.819Z,18.57
2022-10-06T13:31:23.076Z,18.81
2022-10-06T13:33:55.663Z,19.04
2022-10-06T13:36:25.888Z,19.25
2022-10-06T13:38:54.929Z,19.44
2022-10-06T13:41:28.433Z,19.64
2022-10-06T13:44:00.047Z,19.83
2022-10-06T13:46:31.873Z,19.98
2022-10-06T13:49:02.891Z,20.10
2022-10-06T13:51:33.255Z,20.20
2022-10-06T13:54:17.686Z,20.29
2022-10-06T13:56:46.450Z,20.37
2022-10-06T13:59:27.048Z,20.39
2022-10-06T14:01:56.415Z,20.41
2022-10-06T14:04:28.668Z,20.39
2022-10-06T14:07:01.082Z,20.35
2022-10-06T14:09:32.870Z,20.33
2022-10-06T14:12:10.895Z,20.31
2022-10-06T14:14:45.327Z,20.27
2022-10-06T14:17:22.234Z,20.21
2022-10-06T14:19:51.832Z,20.16
2022-10-06T14:22:33.720Z,20.11
2022-10-06T14:25:10.335Z,20.09
2022-10-06T14:27:39.099Z,20.03
2022-10-06T14:30:11.094Z,19.94
2022-10-06T14:32:39.773Z,19.86
2022-10-06T14:35:11.918Z,19.79
2022-10-06T14:37:40.734Z,19.72
2022-10-06T14:40:12.253Z,19.62
2022-10-06T14:42:41.216Z,19.53
2022-10-06T14:45:13.157Z,19.43
2022-10-06T14:47:42.188Z,19.36
2022-10-06T14:50:11.060Z,19.30
2022-10-06T14:52:40.126Z,19.24
2022-10-06T14:55:10.369Z,19.18
2022-10-06T14:57:39.164Z,19.13
2022-10-06T15:00:11.063Z,19.06
2022-10-06T15:02:39.908Z,19.01
2022-10-06T15:05:09.587Z,18.96
2022-10-06T15:07:56.241Z,18.90
2022-10-06T15:10:25.092Z,18.80
2022-10-06T15:12:55.009Z,18.73
2022-10-06T15:15:24.127Z,18.65
2022-10-06T15:17:53.232Z,18.55
2022-10-06T15:20:21.890Z,18.44
2022-10-06T15:22:50.646Z,18.34
2022-10-06T15:25:34.006Z,18.24
2022-10-06T15:28:23.551Z,18.13
2022-10-06T15:30:52.692Z,18.02
2022-10-06T15:33:22.499Z,17.93
2022-10-06T15:36:13.871Z,17.84
2022-10-06T15:38:42.846Z,17.73
2022-10-06T15:41:12.219Z,17.63
2022-10-06T15:43:56.979Z,17.52
2022-10-06T15:46:28.556Z,17.41
2022-10-06T15:49:01.567Z,17.31
2022-10-06T15:51:34.239Z,17.20
2022-10-06T15:54:03.389Z,17.10
2022-10-06T15:56:32.121Z,17.00
2022-10-06T15:59:01.354Z,16.89
2022-10-06T16:01:39.908Z,16.79
2022-10-06T16:04:19.987Z,16.69
2022-10-06T16:06:49.838Z,16.57
2022-10-06T16:09:19.882Z,16.46
2022-10-06T16:11:48.997Z,16.35
2022-10-06T16:14:17.796Z,16.24
2022-10-06T16:16:47.576Z,16.14
2022-10-06T16:19:18.381Z,16.05
2022-10-06T16:21:48.751Z,15.96
2022-10-06T16:24:18.428Z,15.86
2022-10-06T16:26:48.151Z,15.78
2022-10-06T16:29:18.899Z,15.68
2022-10-06T16:31:50.350Z,15.60
2022-10-06T16:34:20.496Z,15.51
2022-10-06T16:36:49.172Z,15.43
2022-10-06T16:39:19.485Z,15.35
2022-10-06T16:41:49.380Z,15.27
2022-10-06T16:44:18.196Z,15.21
2022-10-06T16:46:46.900Z,15.14
2022-10-06T16:49:15.926Z,15.07
2022-10-06T16:51:45.747Z,15.01
2022-10-06T16:54:16.551Z,14.96
2022-10-06T16:56:46.905Z,14.90
2022-10-06T16:59:17.106Z,14.86
2022-10-06T17:01:46.988Z,14.80
2022-10-06T17:04:17.866Z,14.75
2022-10-06T17:06:49.463Z,14.69
2022-10-06T17:09:20.417Z,14.66
2022-10-06T17:11:50.410Z,14.62
2022-10-06T17:14:20.832Z,14.58
2022-10-06T17:16:51.779Z,14.52
2022-10-06T17:19:23.038Z,14.47
2022-10-06T17:21:58.250Z,14.43
2022-10-06T17:24:28.654Z,14.39
2022-10-06T17:26:58.572Z,14.35
2022-10-06T17:29:27.557Z,14.31
2022-10-06T17:31:59.400Z,14.27
2022-10-06T17:34:33.454Z,14.24
2022-10-06T17:37:02.952Z,14.21
2022-10-06T17:39:31.782Z,14.18
2022-10-06T17:42:01.198Z,14.15
2022-10-06T17:44:30.606Z,14.12
2022-10-06T17:47:00.264Z,14.09
2022-10-06T17:49:32.196Z,14.06
2022-10-06T17:52:01.365Z,14.04
2022-10-06T17:54:31.176Z,14.01
2022-10-06T17:56:59.821Z,14.00
2022-10-06T17:59:31.159Z,13.97
2022-10-06T18:02:02.383Z,13.93
2022-10-06T18:04:33.673Z,13.89
2022-10-06T18:07:03.339Z,13.85
2022-10-06T18:09:32.111Z,13.82
2022-10-06T18:12:02.042Z,13.80
2022-10-06T18:14:33.081Z,13.77
2022-10-06T18:17:03.274Z,13.75
2022-10-06T18:19:34.066Z,13.73
2022-10-06T18:22:09.261Z,13.70
2022-10-06T18:24:39.305Z,13.66
2022-10-06T18:27:08.966Z,13.61
2022-10-06T18:29:38.854Z,13.57
2022-10-06T18:37:47.003Z,13.50
2022-10-06T18:40:16.037Z,13.47
2022-10-06T18:42:45.639Z,13.45
2022-10-06T18:45:38.434Z,13.43
2022-10-06T18:48:27.757Z,13.40
2022-10-06T18:51:02.902Z,13.39
2022-10-06T18:53:36.644Z,13.37
2022-10-06T18:56:06.659Z,13.36
2022-10-06T18:58:39.517Z,13.35
2022-10-06T19:01:08.904Z,13.34
2022-10-06T19:03:37.931Z,13.32
2022-10-06T19:06:07.277Z,13.29
2022-10-06T19:08:36.080Z,13.28
2022-10-06T19:11:24.628Z,13.25
2022-10-06T19:13:55.189Z,13.22
2022-10-06T19:16:24.764Z,13.20
2022-10-06T19:18:54.310Z,13.15
2022-10-06T19:21:23.012Z,13.10
2022-10-06T19:23:51.687Z,13.07
2022-10-06T19:26:22.038Z,13.04
2022-10-06T19:28:53.279Z,13.00
2022-10-06T19:31:21.965Z,12.97
2022-10-06T19:33:50.674Z,12.93
2022-10-06T19:36:19.584Z,12.90
2022-10-06T19:38:48.301Z,12.87
2022-10-06T19:41:34.961Z,12.83
2022-10-06T19:44:03.706Z,12.80
2022-10-06T19:46:32.375Z,12.77
2022-10-06T19:49:05.062Z,12.73
2022-10-06T19:51:35.170Z,12.69
2022-10-06T19:54:04.679Z,12.67
2022-10-06T19:56:33.567Z,12.63
2022-10-06T19:59:03.283Z,12.61
2022-10-06T20:01:32.367Z,12.59
2022-10-06T20:04:03.180Z,12.59
2022-10-06T20:06:34.531Z,12.57
2022-10-06T20:09:07.044Z,12.53
2022-10-06T20:11:36.946Z,12.49
2022-10-06T20:14:09.879Z,12.47
2022-10-06T20:16:41.174Z,12.44
2022-10-06T20:19:12.307Z,12.37
2022-10-06T20:21:41.329Z,12.32
2022-10-06T20:24:14.183Z,12.26
2022-10-06T20:26:44.233Z,12.20
2022-10-06T20:29:14.396Z,12.15
2022-10-06T20:31:44.762Z,12.10
2022-10-06T20:34:15.309Z,12.05
2022-10-06T20:36:44.124Z,11.99
2022-10-06T20:39:33.672Z,11.95
2022-10-06T20:42:02.551Z,11.89
2022-10-06T20:44:31.222Z,11.82
2022-10-06T20:46:59.975Z,11.76
2022-10-06T20:49:29.145Z,11.69
2022-10-06T20:51:58.572Z,11.66
2022-10-06T20:54:30.304Z,11.63
2022-10-06T20:56:58.964Z,11.60
2022-10-06T20:59:29.213Z,11.59
2022-10-06T21:01:59.514Z,11.58
2022-10-06T21:04:28.679Z,11.54
2022-10-06T21:06:57.713Z,11.50
2022-10-06T21:09:27.915Z,11.46
2022-10-06T21:11:57.161Z,11.41
2022-10-06T21:14:25.960Z,11.36
2022-10-06T21:16:54.693Z,11.33
2022-10-06T21:19:24.583Z,11.28
2022-10-06T21:21:55.351Z,11.23
2022-10-06T21:24:24.129Z,11.17
2022-10-06T21:26:53.029Z,11.12
2022-10-06T21:29:22.187Z,11.08
2022-10-06T21:31:51.063Z,11.03
2022-10-06T21:34:19.757Z,11.00
2022-10-06T21:36:48.546Z,10.98
2022-10-06T21:39:17.479Z,10.95
2022-10-06T21:41:46.235Z,10.92
2022-10-06T21:44:16.654Z,10.89
2022-10-06T21:46:49.038Z,10.86
2022-10-06T21:49:19.524Z,10.85
2022-10-06T21:51:51.281Z,10.82
2022-10-06T21:54:20.910Z,10.78
2022-10-06T21:56:50.547Z,10.76
2022-10-06T21:59:19.333Z,10.71
2022-10-06T22:01:49.539Z,10.67
2022-10-06T22:04:19.134Z,10.65
2022-10-06T22:06:49.508Z,10.62
2022-10-06T22:09:19.910Z,10.58
2022-10-06T22:11:49.132Z,10.55
2022-10-06T22:14:19.381Z,10.51
2022-10-06T22:16:48.224Z,10.49
2022-10-06T22:19:18.307Z,10.46
2022-10-06T22:21:48.142Z,10.43
2022-10-06T22:24:18.768Z,10.42
2022-10-06T22:26:48.166Z,10.38
2022-10-06T22:29:19.124Z,10.37
2022-10-06T22:31:48.767Z,10.36
2022-10-06T22:34:19.759Z,10.33
2022-10-06T22:36:48.755Z,10.31
2022-10-06T22:39:18.179Z,10.27
2022-10-06T22:41:47.041Z,10.21
2022-10-06T22:44:16.022Z,10.17
2022-10-06T22:46:44.891Z,10.14
2022-10-06T22:49:13.780Z,10.09
2022-10-06T22:51:42.590Z,10.08
2022-10-06T22:54:18.497Z,10.05
2022-10-06T22:56:47.249Z,10.02
2022-10-06T22:59:16.069Z,9.99
2022-10-06T23:01:44.805Z,9.97
2022-10-06T23:04:13.888Z,9.97
2022-10-06T23:06:42.664Z,9.96
2022-10-06T23:09:12.803Z,9.94
2022-10-06T23:11:41.593Z,9.93
2022-10-06T23:14:10.385Z,9.93
2022-10-06T23:16:39.225Z,9.90
2022-10-06T23:19:08.008Z,9.88
2022-10-06T23:21:39.376Z,9.85
2022-10-06T23:24:08.486Z,9.80
2022-10-06T23:26:37.223Z,9.78
2022-10-06T23:29:06.910Z,9.76
2022-10-06T23:31:35.757Z,9.75
2022-10-06T23:34:04.527Z,9.74
2022-10-06T23:36:33.494Z,9.71
2022-10-06T23:39:02.321Z,9.67
2022-10-06T23:41:31.169Z,9.67
2022-10-06T23:44:00.265Z,9.66
2022-10-06T23:46:29.007Z,9.67
2022-10-06T23:48:57.936Z,9.66
2022-10-06T23:51:26.695Z,9.66
2022-10-06T23:53:55.430Z,9.62
2022-10-06T23:56:24.900Z,9.60
2022-10-06T23:58:53.726Z,9.57
